• Join FlightAware (Why Join?)
  • Login
  • US Flag 
01:00AM EST


 

Airport Tracker/Info


-or-


 

Live Flight TrackerFlight Track Log ✈ FRG919 ✈ 03-Jul-2013 ✈ KARV - KMKE

Flight Track Log - Related Links

Times and Time Zones

All times are in EDT time to prevent confusion due to time zone crossing. See the FRG919 flight status page for this flight to view local times or setup timezone preferences in your user account.

Time Position Orientation Groundspeed Altitude Reporting Facility
EDT Latitude Longitude Course Direction KTS MPH feet Rate Location/Type
07:10PM 45.7961 -89.6650 154° Southeast 166 191 8,600  Level Minneapolis Center
07:11PM 45.7478 -89.6322 155° Southeast 190 219 10,800 2,280 Climbing Minneapolis Center
07:12PM 45.6919 -89.5931 154° Southeast 189 217 13,400 2,220 Climbing Minneapolis Center
07:13PM 45.6447 -89.5617 155° Southeast 188 216 15,400 1,740 Climbing Minneapolis Center
07:14PM 45.5961 -89.5306 156° South 192 221 17,000 1,380 Climbing Minneapolis Center
07:15PM 45.5450 -89.4947 154° Southeast 203 234 18,300 1,140 Climbing Minneapolis Center
07:16PM 45.4908 -89.4583 155° Southeast 215 247 19,400 1,080 Climbing Minneapolis Center
07:17PM 45.4214 -89.4119 155° Southeast 229 264 20,600 1,020 Climbing Minneapolis Center
07:18PM 45.3633 -89.3731 155° Southeast 230 265 21,600 960 Climbing Minneapolis Center
07:19PM 45.3044 -89.3347 155° Southeast 234 269 22,600 660 Climbing Minneapolis Center
07:20PM 45.2444 -89.2944 155° Southeast 239 275 23,000 180 Climbing Minneapolis Center
07:21PM 45.1775 -89.2503 155° Southeast 263 303 23,000  Level Minneapolis Center
07:22PM 45.1061 -89.2072 157° South 278 320 23,000  Level Minneapolis Center
07:23PM 45.0178 -89.1822 169° South 284 327 23,000  Level Minneapolis Center
07:24PM 44.9394 -89.1572 167° South 286 329 23,000  Level Minneapolis Center
07:25PM 44.8597 -89.1422 172° South 289 333 23,000  Level Minneapolis Center
07:26PM 44.7669 -89.1492 183° South 286 329 23,000  Level Minneapolis Center
07:27PM 44.6872 -89.1531 182° South 286 329 23,000 -240 Level Minneapolis Center
07:28PM 44.6147 -89.1125 158° South 287 330 22,500 -1,140 Descending Minneapolis Center
07:29PM 44.5394 -89.0525 150° Southeast 305 351 20,700 -1,500 Descending Minneapolis Center
07:30PM 44.4625 -88.9861 148° Southeast 319 367 19,400 -840 Descending Minneapolis Center
07:31PM 44.3878 -88.9244 149° Southeast 314 361 19,000 -240 Descending Minneapolis Center
07:32PM 44.3081 -88.8567 149° Southeast 293 337 19,000  Level Minneapolis Center
07:33PM 44.2406 -88.7989 148° Southeast 285 328 19,000  Level Minneapolis Center
07:34PM 44.1733 -88.7431 149° Southeast 281 323 19,000 -180 Level Minneapolis Center
07:35PM 44.1189 -88.6969 149° Southeast 278 320 18,700 -540 Descending Chicago Center
07:36PM 44.0481 -88.6383 149° Southeast 291 335 18,000 -540 Descending Chicago Center
07:37PM 43.9658 -88.5717 150° Southeast 293 337 17,600 -780 Descending Chicago Center
07:38PM 43.8942 -88.5111 149° Southeast 297 342 16,500 -1,080 Descending Chicago Center
07:39PM 43.8200 -88.4503 149° Southeast 306 352 15,400 -1,080 Descending Chicago Center
07:40PM 43.7469 -88.3897 149° Southeast 305 351 14,300 -1,080 Descending Chicago Center
07:41PM 43.6744 -88.3303 149° Southeast 303 349 13,200 -1,080 Descending Chicago Center
07:43PM 43.6031 -88.2717 149° Southeast 298 343 12,100 -1,080 Descending Chicago Center
07:44PM 43.5311 -88.2122 149° Southeast 298 343 11,000 -1,200 Descending Chicago Center
07:45PM 43.4494 -88.1461 150° Southeast 291 335 9,700 -1,200 Descending Chicago Center
07:46PM 43.3769 -88.1139 162° South 284 327 8,600 -1,080 Descending Chicago Center
07:47PM 43.3000 -88.1086 177° South 275 316 7,500 -780 Descending Chicago Center
07:48PM 43.2269 -88.1161 184° South 266 306 7,000 -720 Descending Chicago Center
07:49PM 43.1550 -88.1433 195° South 266 306 6,100 -960 Descending Chicago Center
07:50PM 43.0847 -88.1667 194° South 262 302 5,000 -1,020 Descending Chicago Center
07:51PM 43.0008 -88.1750 184° South 260 299 4,000 -540 Descending Chicago Center
07:52PM 42.9367 -88.1700 177° South 241 277 4,000 -540 Level Chicago Center
07:53PM 42.8936 -88.1439 156° South 194 223 2,900 -660 Descending Chicago Center
07:54PM 42.8994 -88.0772 83° East 187 215 2,700 -360 Descending Chicago Center
07:55PM 42.9158 -88.0125 71° East 182 209 2,200 -600 Descending Chicago Center
07:56PM 42.9317 -87.9497 71° East 172 198 1,500 -720 Descending Chicago Center
07:58PM 42.9333 -87.8833 108° East  Level FlightAware Approximate
08:05PM 42.9469 -87.8971 108° East  Level Estimated